Meteorología y climatología de Navarra
Datos de la estación - Meteo Navarra

Estación de Gorramendi GN

Altitud 1071 m.


Datos desde el 16/09/2020 hasta el 17/09/2020 en horario solar
Los datos son PROVISIONALES

Anterior Página 1 de 1 Siguiente Descargar: Formato para Excel 2000 o superior   Formato csv   Formato para OpenOffice Calc
Fecha Temperatura Humedad relativa Radiación global Insolación Precipitación Vel. viento 10 m Vel. viento 10 m Dir. viento 10 m
ºC % W/m² s l/m² m/s km/h º
16/09/2020 0:00 19.2 60 0.0 0 0.0 9.1 32.7 134
16/09/2020 0:10 19.0 61 0.0 0 0.0 9.0 32.2 135
16/09/2020 0:20 19.0 61 0.0 0 0.0 8.3 29.7 134
16/09/2020 0:30 19.1 60 0.0 0 0.0 8.0 28.8 136
16/09/2020 0:40 19.1 61 0.0 0 0.0 8.4 30.1 136
16/09/2020 0:50 19.2 60 0.0 0 0.0 7.9 28.5 137
16/09/2020 1:00 19.1 61 0.0 0 0.0 7.4 26.5 139
16/09/2020 1:10 19.1 60 0.0 0 0.0 7.2 26.0 142
16/09/2020 1:20 19.0 60 0.0 0 0.0 7.2 25.8 146
16/09/2020 1:30 19.2 59 0.0 0 0.0 6.7 24.1 152
16/09/2020 1:40 19.3 58 0.0 0 0.0 6.3 22.7 159
16/09/2020 1:50 19.6 56 0.0 0 0.0 6.2 22.3 162
16/09/2020 2:00 19.8 55 0.0 0 0.0 6.0 21.7 164
16/09/2020 2:10 19.4 57 0.0 0 0.0 5.7 20.4 160
16/09/2020 2:20 19.7 55 0.0 0 0.0 5.9 21.1 162
16/09/2020 2:30 19.7 54 0.0 0 0.0 6.1 22.0 162
16/09/2020 2:40 19.8 53 0.0 0 0.0 5.8 20.8 168
16/09/2020 2:50 20.0 53 0.0 0 0.0 5.3 19.0 170
16/09/2020 3:00 19.8 54 0.0 0 0.0 5.0 17.9 168
16/09/2020 3:10 19.8 54 0.0 0 0.0 5.0 17.8 167
16/09/2020 3:20 19.7 54 0.0 0 0.0 4.6 16.6 168
16/09/2020 3:30 19.8 54 0.0 0 0.0 4.0 14.4 163
16/09/2020 3:40 20.0 53 0.0 0 0.0 4.1 14.8 159
16/09/2020 3:50 19.9 53 0.0 0 0.0 3.9 14.1 161
16/09/2020 4:00 20.1 53 0.0 0 0.0 3.8 13.5 168
16/09/2020 4:10 20.0 53 0.0 0 0.0 3.4 12.3 168
16/09/2020 4:20 20.1 53 0.0 0 0.0 3.1 11.1 165
16/09/2020 4:30 20.3 52 0.0 0 0.0 2.7 9.7 167
16/09/2020 4:40 20.6 52 0.0 0 0.0 2.8 10.2 165
16/09/2020 4:50 20.5 52 0.0 0 0.0 2.7 9.8 172
16/09/2020 5:00 20.5 52 0.0 0 0.0 2.7 9.6 172
16/09/2020 5:10 20.5 52 0.0 0 0.0 2.6 9.2 163
16/09/2020 5:20 20.4 52 0.0 0 0.0 2.7 9.9 167
16/09/2020 5:30 20.4 52 0.0 0 0.0 2.8 10.0 169
16/09/2020 5:40 20.3 53 0.0 0 0.0 3.2 11.5 162
16/09/2020 5:50 20.2 53 0.0 0 0.0 3.4 12.2 160
16/09/2020 6:00 20.3 53 14.9 0 0.0 3.6 12.9 155
16/09/2020 6:10 20.1 53 36.2 468 0.0 3.9 14.1 157
16/09/2020 6:20 20.2 53 53.5 600 0.0 3.6 12.8 158
16/09/2020 6:30 20.2 53 73.3 600 0.0 4.2 15.0 154
16/09/2020 6:40 20.3 53 75.9 390 0.0 4.8 17.3 156
16/09/2020 6:50 20.2 53 91.2 358 0.0 4.6 16.7 159
16/09/2020 7:00 20.4 53 149.5 546 0.0 4.7 16.8 155
16/09/2020 7:10 20.6 53 210.9 600 0.0 4.5 16.1 148
16/09/2020 7:20 20.8 53 190.1 496 0.0 4.3 15.5 147
16/09/2020 7:30 20.7 53 230.5 470 0.0 4.9 17.7 154
16/09/2020 7:40 20.9 52 195.5 216 0.0 5.7 20.4 155
16/09/2020 7:50 21.3 52 358.3 600 0.0 5.5 19.8 149
16/09/2020 8:00 21.4 51 343.0 540 0.0 4.9 17.8 146
16/09/2020 8:10 21.6 52 399.7 600 0.0 4.5 16.0 136
16/09/2020 8:20 21.5 52 387.8 600 0.0 4.7 16.8 130
16/09/2020 8:30 21.6 51 432.5 600 0.0 5.0 18.0 131
16/09/2020 8:40 21.6 51 462.7 600 0.0 5.1 18.2 129
16/09/2020 8:50 22.0 51 466.6 600 0.0 5.4 19.3 138
16/09/2020 9:00 22.2 50 523.5 600 0.0 5.1 18.4 144
16/09/2020 9:10 22.4 48 561.2 600 0.0 4.1 14.6 147
16/09/2020 9:20 22.7 47 572.2 600 0.0 3.5 12.5 142
16/09/2020 9:30 22.6 49 601.3 600 0.0 3.3 11.8 140
16/09/2020 9:40 22.8 49 611.8 600 0.0 3.0 10.6 137
16/09/2020 9:50 22.7 48 659.4 600 0.0 2.8 10.0 159
16/09/2020 10:00 23.1 47 682.5 600 0.0 2.6 9.2 132
16/09/2020 10:10 23.2 47 703.5 600 0.0 2.6 9.5 132
16/09/2020 10:20 23.2 47 646.1 600 0.0 2.4 8.5 142
16/09/2020 10:30 22.8 48 504.4 600 0.0 3.0 10.8 138
16/09/2020 10:40 22.5 52 403.2 318 0.0 3.2 11.4 129
16/09/2020 10:50 22.2 50 685.1 600 0.0 4.7 17.1 115
16/09/2020 11:00 22.6 49 767.2 600 0.0 4.2 15.2 114
16/09/2020 11:10 23.0 50 769.8 600 0.0 3.3 12.0 115
16/09/2020 11:20 23.1 48 775.0 600 0.0 3.2 11.5 129
16/09/2020 11:30 22.8 48 778.0 600 0.0 3.2 11.6 125
16/09/2020 11:40 22.9 49 775.7 600 0.0 3.7 13.3 117
16/09/2020 11:50 22.9 49 775.8 600 0.0 3.4 12.3 108
16/09/2020 12:00 22.9 48 776.0 600 0.0 4.0 14.2 111
16/09/2020 12:10 23.2 48 772.9 600 0.0 3.8 13.8 122
16/09/2020 12:20 23.1 48 772.1 600 0.0 4.0 14.2 116
16/09/2020 12:30 23.0 48 766.5 600 0.0 3.8 13.8 112
16/09/2020 12:40 23.1 49 757.4 600 0.0 4.7 16.8 113
16/09/2020 12:50 22.9 51 748.8 600 0.0 5.5 19.8 102
16/09/2020 13:00 23.2 52 741.1 600 0.0 4.9 17.5 106
16/09/2020 13:10 22.5 53 729.3 600 0.0 4.3 15.3 91
16/09/2020 13:20 22.7 55 715.7 600 0.0 4.4 15.9 103
16/09/2020 13:30 22.5 56 698.6 600 0.0 3.9 14.1 96
16/09/2020 13:40 22.8 56 680.7 600 0.0 4.3 15.4 92
16/09/2020 13:50 22.8 56 656.2 600 0.0 4.7 17.0 79
16/09/2020 14:00 22.5 59 630.6 600 0.0 4.7 17.0 69
16/09/2020 14:10 22.7 57 615.1 600 0.0 5.7 20.4 78
16/09/2020 14:20 22.6 57 590.1 600 0.0 4.4 15.8 76
16/09/2020 14:30 22.6 58 558.3 600 0.0 4.3 15.6 60
16/09/2020 14:40 22.6 57 530.2 600 0.0 5.1 18.3 66
16/09/2020 14:50 22.4 59 515.8 600 0.0 5.4 19.5 46
16/09/2020 15:00 22.6 58 499.2 600 0.0 5.1 18.4 61
16/09/2020 15:10 22.7 57 469.2 600 0.0 5.1 18.3 59
16/09/2020 15:20 22.6 56 438.3 600 0.0 5.3 19.2 50
16/09/2020 15:30 22.6 56 364.8 600 0.0 4.5 16.2 48
16/09/2020 15:40 22.5 55 364.6 600 0.0 5.1 18.4 46
16/09/2020 15:50 22.4 56 297.7 586 0.0 5.7 20.6 44
16/09/2020 16:00 22.3 56 143.1 10 0.0 6.5 23.5 51
16/09/2020 16:10 22.0 56 122.9 0 0.0 7.3 26.1 63
16/09/2020 16:20 22.0 56 209.6 346 0.0 7.5 26.9 66
16/09/2020 16:30 22.2 56 240.4 600 0.0 7.3 26.4 67
16/09/2020 16:40 22.0 59 179.7 600 0.0 7.4 26.5 72
16/09/2020 16:50 21.8 61 144.4 492 0.0 7.2 25.8 67
16/09/2020 17:00 21.6 61 105.7 0 0.0 8.0 28.7 75
16/09/2020 17:10 21.7 57 81.0 0 0.0 8.5 30.5 76
16/09/2020 17:20 21.6 56 68.0 0 0.0 8.6 30.8 83
16/09/2020 17:30 21.7 54 64.0 0 0.0 9.0 32.3 86
16/09/2020 17:40 21.6 54 54.5 542 0.0 8.8 31.5 84
16/09/2020 17:50 21.5 55 37.9 598 0.0 9.7 35.0 86
16/09/2020 18:00 21.8 52 23.9 0 0.0 10.5 37.8 88
16/09/2020 18:10 21.6 52 4.3 0 0.0 10.6 38.2 89
16/09/2020 18:20 21.5 52 0.0 0 0.0 10.7 38.7 89
16/09/2020 18:30 21.5 51 0.0 0 0.0 11.0 39.6 91
16/09/2020 18:40 21.5 50 0.0 0 0.0 11.1 40.1 91
16/09/2020 18:50 21.4 51 0.0 0 0.0 10.8 39.0 92
16/09/2020 19:00 21.4 51 0.0 0 0.0 10.6 38.1 95
16/09/2020 19:10 21.4 50 0.0 0 0.0 10.3 37.0 95
16/09/2020 19:20 21.3 50 0.0 0 0.0 9.6 34.5 93
16/09/2020 19:30 21.1 51 0.0 0 0.0 10.2 36.8 97
16/09/2020 19:40 21.2 51 0.0 0 0.0 9.5 34.0 102
16/09/2020 19:50 21.1 51 0.0 0 0.0 9.9 35.7 105
16/09/2020 20:00 21.1 51 0.0 0 0.0 11.1 39.9 103
16/09/2020 20:10 21.1 51 0.0 0 0.0 11.4 41.0 107
16/09/2020 20:20 21.0 52 0.0 0 0.0 11.5 41.3 114
16/09/2020 20:30 20.9 53 0.0 0 0.0 10.8 38.8 112
16/09/2020 20:40 20.9 52 0.0 0 0.0 11.5 41.5 112
16/09/2020 20:50 20.8 53 0.0 0 0.0 11.1 39.8 114
16/09/2020 21:00 20.5 54 0.0 0 0.0 11.3 40.5 114
16/09/2020 21:10 20.4 54 0.0 0 0.0 12.2 43.9 114
16/09/2020 21:20 20.6 53 0.0 0 0.0 12.2 43.9 115
16/09/2020 21:30 20.6 53 0.0 0 0.0 11.9 42.8 116
16/09/2020 21:40 20.3 54 0.0 0 0.0 10.7 38.4 117
16/09/2020 21:50 20.3 54 0.0 0 0.0 12.1 43.7 115
16/09/2020 22:00 20.5 53 0.0 0 0.0 12.9 46.3 111
16/09/2020 22:10 20.5 53 0.0 0 0.0 13.4 48.2 114
16/09/2020 22:20 20.4 53 0.0 0 0.0 12.0 43.1 111
16/09/2020 22:30 20.3 53 0.0 0 0.0 12.6 45.3 116
16/09/2020 22:40 20.2 54 0.0 0 0.0 11.9 42.9 114
16/09/2020 22:50 20.2 54 0.0 0 0.0 12.3 44.4 110
16/09/2020 23:00 20.3 53 0.0 0 0.0 14.8 53.4 110
16/09/2020 23:10 20.3 52 0.0 0 0.0 14.1 50.8 110
16/09/2020 23:20 20.4 52 0.0 0 0.0 14.8 53.2 111
16/09/2020 23:30 20.3 52 0.0 0 0.0 14.3 51.6 109
16/09/2020 23:40 20.3 52 0.0 0 0.0 13.3 47.8 113
16/09/2020 23:50 20.3 52 0.0 0 0.0 12.6 45.4 110
Anterior Página 1 de 1 Siguiente
Los datos de precipitación registrados en estaciones que están en cumbres son inferiores a lo real, como consecuencia del efecto del viento y de la nieve.


NOTA: Tipo de datos según el color:
   - Valores diarios o 10 minutos correctos
   - Valores diarios calculados a partir de un número de datos 10 minutos menor que 144 y mayor que 120, o de un número de datos semihorarios menor que 48 y mayor que 40 (caso de las estaciones de INTIA y del Ministerio)
   - Valores diez minutos estimados


Contacto        Enlaces        Aviso legal